sensor_id;sensor_type;location;lat;lon;timestamp;P1;durP1;ratioP1;P2;durP2;ratioP2
40793;SDS011;26502;51.886;15.604;2023-04-06T00:00:13;11.00;;;5.30;;
40793;SDS011;26502;51.886;15.604;2023-04-06T00:05:40;12.20;;;5.80;;
40793;SDS011;26502;51.886;15.604;2023-04-06T00:10:46;10.20;;;5.50;;
40793;SDS011;26502;51.886;15.604;2023-04-06T00:15:53;14.00;;;5.90;;
40793;SDS011;26502;51.886;15.604;2023-04-06T00:21:00;12.60;;;6.10;;
40793;SDS011;26502;51.886;15.604;2023-04-06T00:26:06;11.50;;;5.40;;
40793;SDS011;26502;51.886;15.604;2023-04-06T00:31:13;11.00;;;5.70;;
40793;SDS011;26502;51.886;15.604;2023-04-06T00:36:20;11.20;;;5.30;;
40793;SDS011;26502;51.886;15.604;2023-04-06T00:41:28;11.90;;;5.90;;
40793;SDS011;26502;51.886;15.604;2023-04-06T00:46:34;13.80;;;6.50;;
40793;SDS011;26502;51.886;15.604;2023-04-06T00:51:41;12.60;;;6.50;;
40793;SDS011;26502;51.886;15.604;2023-04-06T00:56:47;15.40;;;7.00;;
40793;SDS011;26502;51.886;15.604;2023-04-06T01:01:54;14.60;;;6.60;;
40793;SDS011;26502;51.886;15.604;2023-04-06T01:07:09;14.20;;;7.20;;
40793;SDS011;26502;51.886;15.604;2023-04-06T01:12:21;17.60;;;8.40;;
40793;SDS011;26502;51.886;15.604;2023-04-06T01:17:29;15.20;;;6.40;;
40793;SDS011;26502;51.886;15.604;2023-04-06T01:22:40;15.80;;;7.40;;
40793;SDS011;26502;51.886;15.604;2023-04-06T01:27:48;12.90;;;6.50;;
40793;SDS011;26502;51.886;15.604;2023-04-06T01:33:20;12.10;;;6.30;;
40793;SDS011;26502;51.886;15.604;2023-04-06T01:38:39;13.00;;;6.30;;
40793;SDS011;26502;51.886;15.604;2023-04-06T01:43:46;13.10;;;7.10;;
40793;SDS011;26502;51.886;15.604;2023-04-06T01:48:58;10.70;;;5.60;;
40793;SDS011;26502;51.886;15.604;2023-04-06T01:54:16;13.40;;;7.00;;
40793;SDS011;26502;51.886;15.604;2023-04-06T01:59:45;10.80;;;6.60;;
40793;SDS011;26502;51.886;15.604;2023-04-06T02:05:02;18.00;;;7.10;;
40793;SDS011;26502;51.886;15.604;2023-04-06T02:10:13;14.10;;;7.20;;
40793;SDS011;26502;51.886;15.604;2023-04-06T02:15:20;11.50;;;5.80;;
40793;SDS011;26502;51.886;15.604;2023-04-06T02:20:26;13.00;;;6.70;;
40793;SDS011;26502;51.886;15.604;2023-04-06T02:25:32;17.10;;;7.10;;
40793;SDS011;26502;51.886;15.604;2023-04-06T02:30:39;13.20;;;7.20;;
40793;SDS011;26502;51.886;15.604;2023-04-06T02:35:46;12.10;;;7.10;;
40793;SDS011;26502;51.886;15.604;2023-04-06T02:40:53;16.20;;;7.30;;
40793;SDS011;26502;51.886;15.604;2023-04-06T02:46:01;11.80;;;7.00;;
40793;SDS011;26502;51.886;15.604;2023-04-06T02:51:10;11.90;;;6.10;;
40793;SDS011;26502;51.886;15.604;2023-04-06T02:56:17;14.30;;;7.40;;
40793;SDS011;26502;51.886;15.604;2023-04-06T03:01:26;13.70;;;7.80;;
40793;SDS011;26502;51.886;15.604;2023-04-06T03:06:35;15.30;;;7.40;;
40793;SDS011;26502;51.886;15.604;2023-04-06T03:11:49;13.30;;;7.20;;
40793;SDS011;26502;51.886;15.604;2023-04-06T03:16:55;14.70;;;7.40;;
40793;SDS011;26502;51.886;15.604;2023-04-06T03:22:02;11.50;;;6.70;;
40793;SDS011;26502;51.886;15.604;2023-04-06T03:27:09;16.20;;;8.20;;
40793;SDS011;26502;51.886;15.604;2023-04-06T03:32:17;16.30;;;8.70;;
40793;SDS011;26502;51.886;15.604;2023-04-06T03:37:23;14.40;;;8.20;;
40793;SDS011;26502;51.886;15.604;2023-04-06T03:42:31;15.60;;;7.70;;
40793;SDS011;26502;51.886;15.604;2023-04-06T03:47:43;15.90;;;8.20;;
40793;SDS011;26502;51.886;15.604;2023-04-06T03:52:50;13.70;;;7.80;;
40793;SDS011;26502;51.886;15.604;2023-04-06T03:57:56;13.40;;;8.60;;
40793;SDS011;26502;51.886;15.604;2023-04-06T04:03:02;18.40;;;8.90;;
40793;SDS011;26502;51.886;15.604;2023-04-06T04:08:10;20.10;;;9.10;;
40793;SDS011;26502;51.886;15.604;2023-04-06T04:13:16;15.00;;;8.40;;
40793;SDS011;26502;51.886;15.604;2023-04-06T04:18:24;20.40;;;9.60;;
40793;SDS011;26502;51.886;15.604;2023-04-06T04:23:33;18.50;;;9.10;;
40793;SDS011;26502;51.886;15.604;2023-04-06T04:28:39;22.20;;;9.40;;
40793;SDS011;26502;51.886;15.604;2023-04-06T04:33:46;24.20;;;11.90;;
40793;SDS011;26502;51.886;15.604;2023-04-06T04:38:54;19.80;;;11.70;;
40793;SDS011;26502;51.886;15.604;2023-04-06T04:44:02;18.20;;;10.80;;
40793;SDS011;26502;51.886;15.604;2023-04-06T04:49:08;23.30;;;12.00;;
40793;SDS011;26502;51.886;15.604;2023-04-06T04:54:15;23.60;;;12.30;;
40793;SDS011;26502;51.886;15.604;2023-04-06T04:59:22;23.90;;;13.10;;
40793;SDS011;26502;51.886;15.604;2023-04-06T05:04:33;26.90;;;13.10;;
40793;SDS011;26502;51.886;15.604;2023-04-06T05:09:44;24.90;;;12.20;;
40793;SDS011;26502;51.886;15.604;2023-04-06T05:14:50;26.50;;;12.40;;
40793;SDS011;26502;51.886;15.604;2023-04-06T05:19:58;24.60;;;12.70;;
40793;SDS011;26502;51.886;15.604;2023-04-06T05:25:06;25.90;;;13.50;;
40793;SDS011;26502;51.886;15.604;2023-04-06T05:30:14;22.60;;;13.50;;
40793;SDS011;26502;51.886;15.604;2023-04-06T05:35:22;29.20;;;15.10;;
40793;SDS011;26502;51.886;15.604;2023-04-06T05:40:30;29.40;;;15.20;;
40793;SDS011;26502;51.886;15.604;2023-04-06T05:45:37;36.60;;;18.40;;
40793;SDS011;26502;51.886;15.604;2023-04-06T05:50:46;90.90;;;44.10;;
40793;SDS011;26502;51.886;15.604;2023-04-06T05:56:00;51.30;;;27.60;;
40793;SDS011;26502;51.886;15.604;2023-04-06T06:01:07;66.00;;;35.20;;
40793;SDS011;26502;51.886;15.604;2023-04-06T06:11:32;59.00;;;32.00;;
40793;SDS011;26502;51.886;15.604;2023-04-06T06:16:39;36.80;;;20.00;;
40793;SDS011;26502;51.886;15.604;2023-04-06T06:21:46;38.70;;;20.30;;
40793;SDS011;26502;51.886;15.604;2023-04-06T06:26:53;39.80;;;22.50;;
40793;SDS011;26502;51.886;15.604;2023-04-06T06:32:01;55.50;;;31.40;;
40793;SDS011;26502;51.886;15.604;2023-04-06T06:37:08;45.00;;;24.60;;
40793;SDS011;26502;51.886;15.604;2023-04-06T06:42:15;47.30;;;25.90;;
40793;SDS011;26502;51.886;15.604;2023-04-06T06:47:25;46.00;;;25.10;;
40793;SDS011;26502;51.886;15.604;2023-04-06T06:52:31;47.10;;;23.20;;
40793;SDS011;26502;51.886;15.604;2023-04-06T06:57:38;47.50;;;24.60;;
40793;SDS011;26502;51.886;15.604;2023-04-06T07:02:46;41.40;;;22.10;;
40793;SDS011;26502;51.886;15.604;2023-04-06T07:07:52;44.60;;;24.10;;
40793;SDS011;26502;51.886;15.604;2023-04-06T07:12:59;45.50;;;25.40;;
40793;SDS011;26502;51.886;15.604;2023-04-06T07:18:06;45.90;;;27.30;;
40793;SDS011;26502;51.886;15.604;2023-04-06T07:23:12;45.40;;;25.60;;
40793;SDS011;26502;51.886;15.604;2023-04-06T07:28:19;46.60;;;25.10;;
40793;SDS011;26502;51.886;15.604;2023-04-06T07:33:25;39.90;;;23.20;;
40793;SDS011;26502;51.886;15.604;2023-04-06T07:38:33;36.70;;;22.90;;
40793;SDS011;26502;51.886;15.604;2023-04-06T07:43:39;39.10;;;23.30;;
40793;SDS011;26502;51.886;15.604;2023-04-06T07:48:46;30.30;;;18.10;;
40793;SDS011;26502;51.886;15.604;2023-04-06T07:53:53;31.40;;;17.10;;
40793;SDS011;26502;51.886;15.604;2023-04-06T07:59:00;26.60;;;16.10;;
40793;SDS011;26502;51.886;15.604;2023-04-06T08:04:07;26.90;;;14.80;;
40793;SDS011;26502;51.886;15.604;2023-04-06T08:09:13;24.10;;;15.60;;
40793;SDS011;26502;51.886;15.604;2023-04-06T08:14:19;21.30;;;13.10;;
40793;SDS011;26502;51.886;15.604;2023-04-06T08:19:25;17.40;;;9.20;;
40793;SDS011;26502;51.886;15.604;2023-04-06T08:24:32;15.10;;;9.70;;
40793;SDS011;26502;51.886;15.604;2023-04-06T08:29:38;16.00;;;9.30;;
40793;SDS011;26502;51.886;15.604;2023-04-06T08:34:44;14.00;;;7.10;;
40793;SDS011;26502;51.886;15.604;2023-04-06T08:39:51;10.30;;;6.40;;
40793;SDS011;26502;51.886;15.604;2023-04-06T08:44:57;18.70;;;10.00;;
40793;SDS011;26502;51.886;15.604;2023-04-06T08:50:05;15.50;;;9.70;;
40793;SDS011;26502;51.886;15.604;2023-04-06T08:55:14;17.90;;;10.20;;
40793;SDS011;26502;51.886;15.604;2023-04-06T09:00:21;11.80;;;6.80;;
40793;SDS011;26502;51.886;15.604;2023-04-06T09:05:29;14.70;;;6.20;;
40793;SDS011;26502;51.886;15.604;2023-04-06T09:10:36;9.00;;;6.30;;
40793;SDS011;26502;51.886;15.604;2023-04-06T09:15:46;8.00;;;5.20;;
40793;SDS011;26502;51.886;15.604;2023-04-06T09:21:02;10.10;;;7.20;;
40793;SDS011;26502;51.886;15.604;2023-04-06T09:26:10;9.60;;;6.40;;
40793;SDS011;26502;51.886;15.604;2023-04-06T09:31:21;10.40;;;6.10;;
40793;SDS011;26502;51.886;15.604;2023-04-06T09:36:32;10.70;;;6.40;;
40793;SDS011;26502;51.886;15.604;2023-04-06T09:41:41;10.20;;;5.90;;
40793;SDS011;26502;51.886;15.604;2023-04-06T09:46:53;8.30;;;5.40;;
40793;SDS011;26502;51.886;15.604;2023-04-06T09:52:02;7.70;;;5.20;;
40793;SDS011;26502;51.886;15.604;2023-04-06T09:57:11;11.00;;;5.50;;
40793;SDS011;26502;51.886;15.604;2023-04-06T10:02:30;8.80;;;5.30;;
40793;SDS011;26502;51.886;15.604;2023-04-06T10:07:42;6.90;;;4.60;;
40793;SDS011;26502;51.886;15.604;2023-04-06T10:12:49;7.30;;;4.00;;
40793;SDS011;26502;51.886;15.604;2023-04-06T10:17:56;9.20;;;4.50;;
40793;SDS011;26502;51.886;15.604;2023-04-06T10:23:05;9.60;;;5.00;;
40793;SDS011;26502;51.886;15.604;2023-04-06T10:28:14;7.30;;;4.40;;
40793;SDS011;26502;51.886;15.604;2023-04-06T10:33:24;7.40;;;5.10;;
40793;SDS011;26502;51.886;15.604;2023-04-06T10:38:34;13.00;;;4.50;;
40793;SDS011;26502;51.886;15.604;2023-04-06T10:43:42;6.40;;;3.50;;
40793;SDS011;26502;51.886;15.604;2023-04-06T10:48:48;6.20;;;4.40;;
40793;SDS011;26502;51.886;15.604;2023-04-06T10:53:56;7.10;;;4.50;;
40793;SDS011;26502;51.886;15.604;2023-04-06T10:59:03;15.60;;;4.90;;
40793;SDS011;26502;51.886;15.604;2023-04-06T11:04:12;9.20;;;5.20;;
40793;SDS011;26502;51.886;15.604;2023-04-06T11:09:25;6.90;;;4.60;;
40793;SDS011;26502;51.886;15.604;2023-04-06T11:14:32;6.90;;;5.10;;
40793;SDS011;26502;51.886;15.604;2023-04-06T11:19:38;16.30;;;6.20;;
40793;SDS011;26502;51.886;15.604;2023-04-06T11:24:45;9.50;;;4.80;;
40793;SDS011;26502;51.886;15.604;2023-04-06T11:29:52;7.00;;;5.40;;
40793;SDS011;26502;51.886;15.604;2023-04-06T11:35:00;7.50;;;4.90;;
40793;SDS011;26502;51.886;15.604;2023-04-06T11:40:07;6.60;;;4.30;;
40793;SDS011;26502;51.886;15.604;2023-04-06T11:45:15;6.90;;;5.00;;
40793;SDS011;26502;51.886;15.604;2023-04-06T11:50:21;7.70;;;5.20;;
40793;SDS011;26502;51.886;15.604;2023-04-06T11:55:29;6.30;;;4.40;;
40793;SDS011;26502;51.886;15.604;2023-04-06T12:00:41;5.20;;;3.90;;
40793;SDS011;26502;51.886;15.604;2023-04-06T12:05:48;8.70;;;4.50;;
40793;SDS011;26502;51.886;15.604;2023-04-06T12:10:54;9.20;;;5.30;;
40793;SDS011;26502;51.886;15.604;2023-04-06T12:16:02;5.20;;;3.80;;
40793;SDS011;26502;51.886;15.604;2023-04-06T12:21:09;7.90;;;5.40;;
40793;SDS011;26502;51.886;15.604;2023-04-06T12:26:15;7.90;;;4.60;;
40793;SDS011;26502;51.886;15.604;2023-04-06T12:31:21;7.70;;;5.40;;
40793;SDS011;26502;51.886;15.604;2023-04-06T12:36:29;8.60;;;5.00;;
40793;SDS011;26502;51.886;15.604;2023-04-06T12:41:35;8.50;;;4.80;;
40793;SDS011;26502;51.886;15.604;2023-04-06T12:46:43;7.10;;;4.50;;
40793;SDS011;26502;51.886;15.604;2023-04-06T12:51:50;6.50;;;4.70;;
40793;SDS011;26502;51.886;15.604;2023-04-06T12:56:56;6.50;;;4.70;;
40793;SDS011;26502;51.886;15.604;2023-04-06T13:02:04;6.70;;;4.70;;
40793;SDS011;26502;51.886;15.604;2023-04-06T13:07:11;6.90;;;4.40;;
40793;SDS011;26502;51.886;15.604;2023-04-06T13:12:17;5.30;;;4.40;;
40793;SDS011;26502;51.886;15.604;2023-04-06T13:17:26;5.10;;;4.30;;
40793;SDS011;26502;51.886;15.604;2023-04-06T13:22:34;5.20;;;4.00;;
40793;SDS011;26502;51.886;15.604;2023-04-06T13:27:42;7.50;;;5.80;;
40793;SDS011;26502;51.886;15.604;2023-04-06T13:32:50;7.20;;;4.50;;
40793;SDS011;26502;51.886;15.604;2023-04-06T13:37:57;7.90;;;5.30;;
40793;SDS011;26502;51.886;15.604;2023-04-06T13:43:03;8.70;;;4.90;;
40793;SDS011;26502;51.886;15.604;2023-04-06T13:48:10;7.90;;;5.20;;
40793;SDS011;26502;51.886;15.604;2023-04-06T13:53:16;8.60;;;6.20;;
40793;SDS011;26502;51.886;15.604;2023-04-06T13:58:22;9.70;;;6.80;;
40793;SDS011;26502;51.886;15.604;2023-04-06T14:03:29;9.00;;;5.30;;
40793;SDS011;26502;51.886;15.604;2023-04-06T14:08:35;8.10;;;5.00;;
40793;SDS011;26502;51.886;15.604;2023-04-06T14:13:41;7.30;;;5.30;;
40793;SDS011;26502;51.886;15.604;2023-04-06T14:18:48;8.20;;;5.30;;
40793;SDS011;26502;51.886;15.604;2023-04-06T14:23:54;7.20;;;5.40;;
40793;SDS011;26502;51.886;15.604;2023-04-06T14:29:01;5.40;;;4.80;;
40793;SDS011;26502;51.886;15.604;2023-04-06T14:34:08;8.90;;;5.20;;
40793;SDS011;26502;51.886;15.604;2023-04-06T14:39:14;12.50;;;5.50;;
40793;SDS011;26502;51.886;15.604;2023-04-06T14:44:21;9.50;;;7.10;;
40793;SDS011;26502;51.886;15.604;2023-04-06T14:49:27;13.20;;;7.00;;
40793;SDS011;26502;51.886;15.604;2023-04-06T14:54:34;8.70;;;6.20;;
40793;SDS011;26502;51.886;15.604;2023-04-06T14:59:41;7.10;;;5.30;;
40793;SDS011;26502;51.886;15.604;2023-04-06T15:04:47;10.20;;;6.60;;
40793;SDS011;26502;51.886;15.604;2023-04-06T15:09:53;9.00;;;6.00;;
40793;SDS011;26502;51.886;15.604;2023-04-06T15:14:59;7.80;;;5.60;;
40793;SDS011;26502;51.886;15.604;2023-04-06T15:20:07;11.30;;;6.50;;
40793;SDS011;26502;51.886;15.604;2023-04-06T15:25:13;8.10;;;5.80;;
40793;SDS011;26502;51.886;15.604;2023-04-06T15:30:20;8.70;;;5.80;;
40793;SDS011;26502;51.886;15.604;2023-04-06T15:35:27;11.50;;;5.40;;
40793;SDS011;26502;51.886;15.604;2023-04-06T15:40:34;6.70;;;4.70;;
40793;SDS011;26502;51.886;15.604;2023-04-06T15:45:45;8.80;;;4.90;;
40793;SDS011;26502;51.886;15.604;2023-04-06T15:50:51;7.80;;;5.30;;
40793;SDS011;26502;51.886;15.604;2023-04-06T15:56:00;10.20;;;5.60;;
40793;SDS011;26502;51.886;15.604;2023-04-06T16:01:11;8.50;;;5.40;;
40793;SDS011;26502;51.886;15.604;2023-04-06T16:06:18;8.60;;;5.10;;
40793;SDS011;26502;51.886;15.604;2023-04-06T16:11:26;7.20;;;5.30;;
40793;SDS011;26502;51.886;15.604;2023-04-06T16:16:32;7.30;;;5.60;;
40793;SDS011;26502;51.886;15.604;2023-04-06T16:21:38;7.90;;;4.80;;
40793;SDS011;26502;51.886;15.604;2023-04-06T16:26:44;8.00;;;5.20;;
40793;SDS011;26502;51.886;15.604;2023-04-06T16:31:53;6.80;;;5.20;;
40793;SDS011;26502;51.886;15.604;2023-04-06T16:37:00;10.10;;;5.70;;
40793;SDS011;26502;51.886;15.604;2023-04-06T16:42:08;7.90;;;5.20;;
40793;SDS011;26502;51.886;15.604;2023-04-06T16:47:15;7.10;;;4.90;;
40793;SDS011;26502;51.886;15.604;2023-04-06T16:52:21;7.90;;;4.90;;
40793;SDS011;26502;51.886;15.604;2023-04-06T16:57:27;8.00;;;4.80;;
40793;SDS011;26502;51.886;15.604;2023-04-06T17:02:34;9.00;;;4.90;;
40793;SDS011;26502;51.886;15.604;2023-04-06T17:07:41;8.60;;;5.30;;
40793;SDS011;26502;51.886;15.604;2023-04-06T17:12:47;6.50;;;4.50;;
40793;SDS011;26502;51.886;15.604;2023-04-06T17:17:53;6.80;;;4.00;;
40793;SDS011;26502;51.886;15.604;2023-04-06T17:23:00;9.20;;;4.80;;
40793;SDS011;26502;51.886;15.604;2023-04-06T17:28:07;8.00;;;5.00;;
40793;SDS011;26502;51.886;15.604;2023-04-06T17:33:13;8.10;;;5.20;;
40793;SDS011;26502;51.886;15.604;2023-04-06T17:38:19;8.40;;;5.40;;
40793;SDS011;26502;51.886;15.604;2023-04-06T17:43:26;9.00;;;5.50;;
40793;SDS011;26502;51.886;15.604;2023-04-06T17:48:32;13.80;;;7.10;;
40793;SDS011;26502;51.886;15.604;2023-04-06T17:53:38;8.40;;;5.30;;
40793;SDS011;26502;51.886;15.604;2023-04-06T17:58:45;10.50;;;5.60;;
40793;SDS011;26502;51.886;15.604;2023-04-06T18:03:52;6.50;;;4.40;;
40793;SDS011;26502;51.886;15.604;2023-04-06T18:08:58;7.50;;;4.70;;
40793;SDS011;26502;51.886;15.604;2023-04-06T18:14:07;7.50;;;4.50;;
40793;SDS011;26502;51.886;15.604;2023-04-06T18:19:15;8.20;;;3.80;;
40793;SDS011;26502;51.886;15.604;2023-04-06T18:24:21;7.30;;;4.10;;
40793;SDS011;26502;51.886;15.604;2023-04-06T18:29:28;5.40;;;3.90;;
40793;SDS011;26502;51.886;15.604;2023-04-06T18:34:35;9.00;;;4.70;;
40793;SDS011;26502;51.886;15.604;2023-04-06T18:39:42;9.00;;;3.90;;
40793;SDS011;26502;51.886;15.604;2023-04-06T18:44:48;7.60;;;4.50;;
40793;SDS011;26502;51.886;15.604;2023-04-06T18:49:55;6.30;;;3.80;;
40793;SDS011;26502;51.886;15.604;2023-04-06T18:55:02;9.30;;;4.20;;
40793;SDS011;26502;51.886;15.604;2023-04-06T19:00:11;16.00;;;6.80;;
40793;SDS011;26502;51.886;15.604;2023-04-06T19:05:19;11.80;;;4.60;;
40793;SDS011;26502;51.886;15.604;2023-04-06T19:10:26;8.80;;;5.00;;
40793;SDS011;26502;51.886;15.604;2023-04-06T19:15:33;8.50;;;4.50;;
40793;SDS011;26502;51.886;15.604;2023-04-06T19:20:39;11.40;;;5.40;;
40793;SDS011;26502;51.886;15.604;2023-04-06T19:25:46;10.20;;;4.80;;
40793;SDS011;26502;51.886;15.604;2023-04-06T19:30:54;9.70;;;4.60;;
40793;SDS011;26502;51.886;15.604;2023-04-06T19:36:00;8.90;;;4.80;;
40793;SDS011;26502;51.886;15.604;2023-04-06T19:41:08;9.00;;;4.70;;
40793;SDS011;26502;51.886;15.604;2023-04-06T19:46:14;10.60;;;5.20;;
40793;SDS011;26502;51.886;15.604;2023-04-06T19:51:21;13.10;;;5.50;;
40793;SDS011;26502;51.886;15.604;2023-04-06T19:56:27;9.10;;;4.80;;
40793;SDS011;26502;51.886;15.604;2023-04-06T20:01:34;10.30;;;4.90;;
40793;SDS011;26502;51.886;15.604;2023-04-06T20:06:40;10.10;;;4.70;;
40793;SDS011;26502;51.886;15.604;2023-04-06T20:11:46;11.10;;;6.00;;
40793;SDS011;26502;51.886;15.604;2023-04-06T20:16:53;21.80;;;9.20;;
40793;SDS011;26502;51.886;15.604;2023-04-06T20:22:00;15.90;;;8.30;;
40793;SDS011;26502;51.886;15.604;2023-04-06T20:27:07;16.40;;;7.70;;
40793;SDS011;26502;51.886;15.604;2023-04-06T20:32:13;13.30;;;6.60;;
40793;SDS011;26502;51.886;15.604;2023-04-06T20:37:22;11.00;;;6.40;;
40793;SDS011;26502;51.886;15.604;2023-04-06T20:42:28;13.10;;;7.20;;
40793;SDS011;26502;51.886;15.604;2023-04-06T20:47:35;15.50;;;7.90;;
40793;SDS011;26502;51.886;15.604;2023-04-06T20:52:41;22.60;;;9.40;;
40793;SDS011;26502;51.886;15.604;2023-04-06T20:57:47;19.60;;;8.50;;
40793;SDS011;26502;51.886;15.604;2023-04-06T21:02:53;19.20;;;9.20;;
40793;SDS011;26502;51.886;15.604;2023-04-06T21:07:59;30.70;;;11.30;;
40793;SDS011;26502;51.886;15.604;2023-04-06T21:13:05;25.80;;;10.00;;
40793;SDS011;26502;51.886;15.604;2023-04-06T21:18:12;24.80;;;9.70;;
40793;SDS011;26502;51.886;15.604;2023-04-06T21:23:18;22.70;;;10.00;;
40793;SDS011;26502;51.886;15.604;2023-04-06T21:28:25;26.30;;;10.30;;
40793;SDS011;26502;51.886;15.604;2023-04-06T21:33:31;27.90;;;11.30;;
40793;SDS011;26502;51.886;15.604;2023-04-06T21:38:37;28.50;;;10.20;;
40793;SDS011;26502;51.886;15.604;2023-04-06T21:43:43;27.20;;;10.50;;
40793;SDS011;26502;51.886;15.604;2023-04-06T21:48:50;28.80;;;12.00;;
40793;SDS011;26502;51.886;15.604;2023-04-06T21:53:56;31.40;;;13.30;;
40793;SDS011;26502;51.886;15.604;2023-04-06T21:59:04;26.10;;;12.30;;
40793;SDS011;26502;51.886;15.604;2023-04-06T22:04:10;27.40;;;11.70;;
40793;SDS011;26502;51.886;15.604;2023-04-06T22:09:16;26.30;;;10.30;;
40793;SDS011;26502;51.886;15.604;2023-04-06T22:14:22;21.60;;;10.80;;
40793;SDS011;26502;51.886;15.604;2023-04-06T22:19:29;26.50;;;11.70;;
40793;SDS011;26502;51.886;15.604;2023-04-06T22:24:35;27.00;;;11.30;;
40793;SDS011;26502;51.886;15.604;2023-04-06T22:29:42;19.40;;;9.80;;
40793;SDS011;26502;51.886;15.604;2023-04-06T22:34:48;22.00;;;9.80;;
40793;SDS011;26502;51.886;15.604;2023-04-06T22:39:54;14.50;;;8.50;;
40793;SDS011;26502;51.886;15.604;2023-04-06T22:45:00;14.40;;;7.90;;
40793;SDS011;26502;51.886;15.604;2023-04-06T22:50:08;14.70;;;7.90;;
40793;SDS011;26502;51.886;15.604;2023-04-06T22:55:15;15.20;;;8.20;;
40793;SDS011;26502;51.886;15.604;2023-04-06T23:00:21;16.40;;;7.40;;
40793;SDS011;26502;51.886;15.604;2023-04-06T23:05:28;15.30;;;8.30;;
40793;SDS011;26502;51.886;15.604;2023-04-06T23:10:34;13.70;;;7.80;;
40793;SDS011;26502;51.886;15.604;2023-04-06T23:15:43;17.60;;;9.30;;
40793;SDS011;26502;51.886;15.604;2023-04-06T23:20:49;25.40;;;9.30;;
40793;SDS011;26502;51.886;15.604;2023-04-06T23:25:56;12.00;;;7.70;;
40793;SDS011;26502;51.886;15.604;2023-04-06T23:31:03;16.10;;;8.40;;
40793;SDS011;26502;51.886;15.604;2023-04-06T23:36:09;14.80;;;8.20;;
40793;SDS011;26502;51.886;15.604;2023-04-06T23:41:15;14.50;;;7.90;;
40793;SDS011;26502;51.886;15.604;2023-04-06T23:46:22;14.50;;;8.20;;
40793;SDS011;26502;51.886;15.604;2023-04-06T23:51:28;16.20;;;8.30;;
40793;SDS011;26502;51.886;15.604;2023-04-06T23:56:34;20.70;;;9.80;;
